Time;durP1;ratioP1;P1;durP2;ratioP2;P2;SDS_P1;SDS_P2;PMS_P1;PMS_P2;Temp;Humidity;BMP_temperature;BMP_pressure;BME280_temperature;BME280_humidity;BME280_pressure;Samples;Min_cycle;Max_cycle;Signal;HPM_P1;HPM_P2
2023/04/15 00:01:23;;;;;;;9.73;6.93;;;9.30;99.00;;;;;;4961946;28;20045;-73
2023/04/15 00:03:54;;;;;;;12.93;7.65;;;9.30;99.30;;;;;;4988074;28;20680;-72
2023/04/15 00:06:22;;;;;;;10.95;7.53;;;9.30;99.60;;;;;;4965391;28;20502;-74
2023/04/15 00:08:49;;;;;;;10.00;7.20;;;9.20;99.90;;;;;;4987019;28;20089;-73
2023/04/15 00:11:17;;;;;;;10.25;7.93;;;9.20;99.90;;;;;;4986500;28;20042;-74
2023/04/15 00:13:43;;;;;;;13.15;7.80;;;9.20;99.90;;;;;;4985604;28;20707;-74
2023/04/15 00:16:09;;;;;;;12.30;7.28;;;9.20;99.90;;;;;;4987234;28;20034;-73
2023/04/15 00:18:36;;;;;;;10.52;7.85;;;9.10;99.90;;;;;;4967990;28;20058;-75
2023/04/15 00:21:02;;;;;;;9.80;7.17;;;9.10;99.90;;;;;;4965346;28;20517;-74
2023/04/15 00:23:28;;;;;;;12.40;8.15;;;9.10;99.90;;;;;;4979972;28;20297;-74
2023/04/15 00:25:54;;;;;;;11.65;7.80;;;9.00;99.90;;;;;;4986044;28;20480;-73
2023/04/15 00:28:19;;;;;;;9.60;7.40;;;9.00;99.90;;;;;;4964149;28;20046;-71
2023/04/15 00:30:46;;;;;;;10.60;7.78;;;8.90;99.90;;;;;;4981092;28;20042;-73
2023/04/15 00:33:12;;;;;;;12.25;7.95;;;8.90;99.90;;;;;;4981416;28;20093;-74
2023/04/15 00:35:38;;;;;;;11.27;8.00;;;8.90;99.90;;;;;;4968775;28;20061;-74
2023/04/15 00:38:06;;;;;;;11.60;7.90;;;8.90;99.90;;;;;;4977633;28;20428;-72
2023/04/15 00:40:32;;;;;;;11.55;8.10;;;8.80;99.90;;;;;;4973866;28;20738;-75
2023/04/15 00:42:57;;;;;;;11.73;8.30;;;8.80;99.90;;;;;;4987195;28;20047;-74
2023/04/15 00:45:24;;;;;;;12.38;8.40;;;8.80;99.90;;;;;;4984378;28;20112;-72
2023/04/15 00:47:50;;;;;;;12.07;8.40;;;8.70;99.90;;;;;;4982445;28;20042;-73
2023/04/15 00:50:15;;;;;;;12.55;8.15;;;8.70;99.90;;;;;;4964599;28;20054;-74
2023/04/15 00:52:41;;;;;;;12.68;8.57;;;8.70;99.90;;;;;;4986500;28;20042;-72
2023/04/15 00:55:08;;;;;;;10.32;7.97;;;8.70;99.90;;;;;;4966617;28;20104;-73
2023/04/15 00:57:34;;;;;;;13.00;9.10;;;8.70;99.90;;;;;;4955925;28;20145;-74
2023/04/15 01:00:00;;;;;;;11.47;8.50;;;8.60;99.90;;;;;;4982855;28;20046;-73
2023/04/15 01:02:26;;;;;;;11.95;8.40;;;8.60;99.90;;;;;;4984633;28;20294;-74
2023/04/15 01:04:52;;;;;;;12.07;8.32;;;8.60;99.90;;;;;;4980788;28;20078;-73
2023/04/15 01:07:17;;;;;;;13.45;9.55;;;8.60;99.90;;;;;;4985982;28;20034;-73
2023/04/15 01:09:44;;;;;;;12.32;9.48;;;8.50;99.90;;;;;;4964959;28;20035;-72
2023/04/15 01:12:12;;;;;;;15.52;9.38;;;8.50;99.90;;;;;;4986049;28;20038;-72
2023/04/15 01:14:40;;;;;;;11.88;9.20;;;8.50;99.90;;;;;;4962132;28;20074;-72
2023/04/15 01:17:06;;;;;;;11.80;8.82;;;8.50;99.90;;;;;;4980710;28;20120;-72
2023/04/15 01:19:32;;;;;;;11.18;9.05;;;8.50;99.90;;;;;;4990365;28;20053;-72
2023/04/15 01:21:58;;;;;;;11.40;8.90;;;8.50;99.90;;;;;;4983265;28;20520;-72
2023/04/15 01:24:27;;;;;;;11.50;9.40;;;8.50;99.90;;;;;;4986389;28;20038;-72
2023/04/15 01:26:52;;;;;;;14.50;9.43;;;8.40;99.90;;;;;;4987971;28;20050;-74
2023/04/15 01:29:18;;;;;;;12.60;9.48;;;8.40;99.90;;;;;;4989817;28;20042;-71
2023/04/15 01:31:51;;;;;;;13.43;9.63;;;8.30;99.90;;;;;;4976624;28;20081;-74
2023/04/15 01:34:17;;;;;;;12.55;9.70;;;8.30;99.90;;;;;;4973244;28;20065;-71
2023/04/15 01:36:43;;;;;;;16.30;10.13;;;8.20;99.90;;;;;;4969066;28;20046;-73
2023/04/15 01:39:09;;;;;;;13.88;9.82;;;8.20;99.90;;;;;;4984691;28;20070;-72
2023/04/15 01:41:35;;;;;;;11.77;9.82;;;8.20;99.90;;;;;;4988383;28;20038;-71
2023/04/15 01:44:01;;;;;;;11.82;9.85;;;8.10;99.90;;;;;;4988406;28;20049;-75
2023/04/15 01:46:26;;;;;;;14.00;9.75;;;8.20;99.90;;;;;;4983750;28;20054;-72
2023/04/15 01:48:52;;;;;;;13.10;10.85;;;8.10;99.90;;;;;;4971605;28;20058;-73
2023/04/15 01:51:18;;;;;;;12.35;10.15;;;8.20;99.90;;;;;;4987027;28;20130;-73
2023/04/15 01:53:44;;;;;;;12.40;10.63;;;8.10;99.90;;;;;;4989479;28;20134;-72
2023/04/15 01:56:10;;;;;;;13.45;10.32;;;8.10;99.90;;;;;;4965565;28;20649;-71
2023/04/15 01:58:36;;;;;;;13.52;10.30;;;8.10;99.90;;;;;;4990161;28;20049;-75
2023/04/15 02:01:03;;;;;;;14.13;10.93;;;8.10;99.90;;;;;;4964285;28;20061;-74
2023/04/15 02:03:32;;;;;;;12.27;10.23;;;8.10;99.90;;;;;;4979625;28;20062;-73
2023/04/15 02:05:58;;;;;;;12.10;10.40;;;8.10;99.90;;;;;;4967951;28;20430;-73
2023/04/15 02:08:24;;;;;;;13.80;11.07;;;8.00;99.90;;;;;;4980052;28;20042;-72
2023/04/15 02:10:50;;;;;;;12.82;10.45;;;8.00;99.90;;;;;;4988738;28;20045;-72
2023/04/15 02:13:15;;;;;;;13.68;11.18;;;7.90;99.90;;;;;;4969270;28;20046;-71
2023/04/15 02:15:47;;;;;;;11.52;10.32;;;7.80;99.90;;;;;;4986141;28;20070;-73
2023/04/15 02:18:13;;;;;;;13.52;11.63;;;7.70;99.90;;;;;;4967178;28;20050;-72
2023/04/15 02:20:39;;;;;;;14.25;11.10;;;7.70;99.90;;;;;;4980188;28;20086;-72
2023/04/15 02:23:06;;;;;;;12.35;10.90;;;7.50;99.90;;;;;;4986076;28;20073;-73
2023/04/15 02:25:32;;;;;;;12.25;10.25;;;7.50;99.90;;;;;;4968107;28;20069;-73
2023/04/15 02:27:57;;;;;;;14.90;10.95;;;7.50;99.90;;;;;;4985262;28;20521;-73
2023/04/15 02:30:24;;;;;;;12.75;11.32;;;7.50;99.90;;;;;;4987580;28;20079;-72
2023/04/15 02:32:50;;;;;;;15.30;11.33;;;7.50;99.90;;;;;;4986623;28;20053;-73
2023/04/15 02:35:18;;;;;;;14.70;11.05;;;7.40;99.90;;;;;;4985074;28;20575;-72
2023/04/15 02:37:44;;;;;;;14.30;11.18;;;7.40;99.90;;;;;;4983573;28;20166;-73
2023/04/15 02:40:11;;;;;;;14.95;11.25;;;7.40;99.90;;;;;;4978714;28;20126;-73
2023/04/15 02:42:40;;;;;;;16.60;11.35;;;7.40;99.90;;;;;;4976082;28;20045;-72
2023/04/15 02:45:06;;;;;;;14.13;10.95;;;7.40;99.90;;;;;;4986668;28;20026;-73
2023/04/15 02:47:33;;;;;;;14.10;11.27;;;7.30;99.90;;;;;;4985739;28;20394;-74
2023/04/15 02:50:00;;;;;;;13.90;11.63;;;7.30;99.90;;;;;;4961689;28;20120;-72
2023/04/15 02:52:26;;;;;;;14.02;11.15;;;7.30;99.90;;;;;;4980906;28;20034;-72
2023/04/15 02:54:56;;;;;;;13.60;11.02;;;7.20;99.90;;;;;;4960857;28;20042;-74
2023/04/15 02:57:25;;;;;;;14.93;12.32;;;7.20;99.90;;;;;;4985528;28;20049;-72
2023/04/15 02:59:50;;;;;;;14.40;11.98;;;7.20;99.90;;;;;;4963696;28;21025;-74
2023/04/15 03:02:16;;;;;;;17.13;12.52;;;7.20;99.90;;;;;;4983447;28;20145;-74
2023/04/15 03:04:41;;;;;;;13.85;11.65;;;7.20;99.90;;;;;;4987451;28;20042;-74
2023/04/15 03:07:07;;;;;;;15.82;12.07;;;7.20;99.90;;;;;;4986131;28;20397;-72
2023/04/15 03:09:33;;;;;;;16.13;12.10;;;7.20;99.90;;;;;;4984962;28;20068;-73
2023/04/15 03:11:59;;;;;;;17.90;13.43;;;7.10;99.90;;;;;;4987117;28;20053;-75
2023/04/15 03:14:25;;;;;;;18.00;12.20;;;7.20;99.90;;;;;;4988495;28;20035;-73
2023/04/15 03:16:51;;;;;;;15.75;12.57;;;7.10;99.90;;;;;;4973969;28;20117;-71
2023/04/15 03:19:17;;;;;;;17.17;13.40;;;7.10;99.90;;;;;;4985166;28;20050;-72
2023/04/15 03:21:42;;;;;;;16.38;13.00;;;7.10;99.90;;;;;;4963153;28;20051;-72
2023/04/15 03:24:08;;;;;;;14.27;12.65;;;7.10;99.90;;;;;;4965859;28;20312;-72
2023/04/15 03:26:34;;;;;;;16.17;12.38;;;7.10;99.90;;;;;;4986952;28;20062;-74
2023/04/15 03:29:00;;;;;;;16.17;12.93;;;7.10;99.90;;;;;;4987568;28;20150;-72
2023/04/15 03:31:28;;;;;;;16.00;13.07;;;7.10;99.90;;;;;;4984530;28;20054;-73
2023/04/15 03:33:54;;;;;;;16.33;13.00;;;7.00;99.90;;;;;;4970185;28;20123;-73
2023/04/15 03:36:20;;;;;;;17.70;12.75;;;7.00;99.90;;;;;;4972807;28;20055;-73
2023/04/15 03:38:45;;;;;;;14.52;12.57;;;7.00;99.90;;;;;;4982450;28;20038;-72
2023/04/15 03:41:11;;;;;;;18.00;13.88;;;6.90;99.90;;;;;;4984950;28;20410;-71
2023/04/15 03:43:37;;;;;;;17.75;12.60;;;6.90;99.90;;;;;;4982637;28;20046;-72
2023/04/15 03:46:03;;;;;;;14.18;12.57;;;6.90;99.90;;;;;;4986171;28;20049;-71
2023/04/15 03:48:29;;;;;;;16.02;13.07;;;6.90;99.90;;;;;;4982804;28;20038;-74
2023/04/15 03:50:54;;;;;;;16.10;12.95;;;6.90;99.90;;;;;;4984918;28;20419;-72
2023/04/15 03:53:20;;;;;;;15.95;12.65;;;6.80;99.90;;;;;;4968342;28;20061;-74
2023/04/15 03:55:46;;;;;;;16.98;13.32;;;6.80;99.90;;;;;;4984477;28;20092;-74
2023/04/15 03:58:12;;;;;;;20.42;13.50;;;6.70;99.90;;;;;;4970435;28;20546;-74
2023/04/15 04:00:38;;;;;;;17.70;13.07;;;6.70;99.90;;;;;;4984405;28;20117;-74
2023/04/15 04:03:04;;;;;;;15.75;13.25;;;6.60;99.90;;;;;;4983738;28;20097;-72
2023/04/15 04:05:30;;;;;;;14.63;12.93;;;6.60;99.90;;;;;;4984326;28;20046;-73
2023/04/15 04:07:56;;;;;;;20.08;13.57;;;6.60;99.90;;;;;;4983226;28;20042;-73
2023/04/15 04:10:21;;;;;;;18.10;13.52;;;6.50;99.90;;;;;;4986126;28;20498;-71
2023/04/15 04:12:47;;;;;;;16.95;13.65;;;6.50;99.90;;;;;;4965269;28;20098;-72
2023/04/15 04:15:13;;;;;;;15.75;13.52;;;6.50;99.90;;;;;;4981568;28;20117;-72
2023/04/15 04:17:38;;;;;;;16.23;13.90;;;6.40;99.90;;;;;;4966044;28;20544;-72
2023/04/15 04:20:05;;;;;;;16.38;12.45;;;6.40;99.90;;;;;;4979826;28;20100;-74
2023/04/15 04:22:31;;;;;;;17.13;14.10;;;6.30;99.90;;;;;;4968061;28;20038;-74
2023/04/15 04:24:58;;;;;;;16.90;13.85;;;6.30;99.90;;;;;;4976455;28;20050;-71
2023/04/15 04:27:24;;;;;;;16.60;13.48;;;6.20;99.90;;;;;;4982864;28;20138;-73
2023/04/15 04:29:50;;;;;;;18.25;13.38;;;6.30;99.90;;;;;;4986303;28;20045;-70
2023/04/15 04:32:16;;;;;;;17.05;13.50;;;6.30;99.90;;;;;;4982876;28;20038;-73
2023/04/15 04:34:41;;;;;;;16.40;13.40;;;6.30;99.90;;;;;;4968796;28;20050;-73
2023/04/15 04:37:07;;;;;;;18.73;14.32;;;6.30;99.90;;;;;;4986122;28;20106;-73
2023/04/15 04:39:33;;;;;;;16.63;14.05;;;6.20;99.90;;;;;;4981095;28;20100;-73
2023/04/15 04:41:58;;;;;;;20.00;14.48;;;6.20;99.90;;;;;;4958934;28;20077;-73
2023/04/15 04:44:24;;;;;;;17.48;13.90;;;6.20;99.90;;;;;;4987109;28;20085;-73
2023/04/15 04:46:49;;;;;;;17.98;15.02;;;6.20;99.90;;;;;;4984308;28;20800;-73
2023/04/15 04:49:15;;;;;;;18.15;14.93;;;6.10;99.90;;;;;;4986486;28;20390;-72
2023/04/15 04:51:41;;;;;;;19.42;14.95;;;6.10;99.90;;;;;;4989370;28;20655;-74
2023/04/15 04:54:07;;;;;;;20.33;14.65;;;6.00;99.90;;;;;;4994344;23;20081;-72
2023/04/15 04:56:33;;;;;;;17.45;15.15;;;6.00;99.90;;;;;;4983314;28;20421;-72
2023/04/15 04:58:59;;;;;;;20.27;15.05;;;6.10;99.90;;;;;;4981277;28;20046;-74
2023/04/15 05:01:26;;;;;;;18.73;15.07;;;6.10;99.90;;;;;;5006494;28;20042;-73
2023/04/15 05:03:52;;;;;;;19.27;15.25;;;6.10;99.90;;;;;;5001334;28;20529;-73
2023/04/15 05:06:17;;;;;;;16.25;13.95;;;6.00;99.90;;;;;;5006266;28;20100;-72
2023/04/15 05:08:45;;;;;;;18.52;15.32;;;6.10;99.90;;;;;;5001853;28;20050;-74
2023/04/15 05:11:11;;;;;;;19.75;15.50;;;6.10;99.90;;;;;;5004966;28;20042;-72
2023/04/15 05:13:40;;;;;;;18.38;15.10;;;6.00;99.90;;;;;;4989811;28;20054;-72
2023/04/15 05:16:06;;;;;;;18.58;14.88;;;6.00;99.90;;;;;;5000997;28;20524;-72
2023/04/15 05:18:32;;;;;;;18.33;15.10;;;6.00;99.90;;;;;;4991249;28;20050;-72
2023/04/15 05:20:58;;;;;;;18.27;15.10;;;6.00;99.90;;;;;;5004655;28;20038;-73
2023/04/15 05:23:24;;;;;;;21.67;16.17;;;6.00;99.90;;;;;;5009320;28;20170;-71
2023/04/15 05:25:50;;;;;;;19.95;15.85;;;6.00;99.90;;;;;;5007770;28;20042;-72
2023/04/15 05:28:15;;;;;;;19.45;15.77;;;6.10;99.90;;;;;;5003164;28;20037;-73
2023/04/15 05:30:41;;;;;;;18.38;15.60;;;6.10;99.90;;;;;;4988351;28;20074;-72
2023/04/15 05:33:08;;;;;;;18.35;16.00;;;6.10;99.90;;;;;;5005088;28;20046;-73
2023/04/15 05:35:33;;;;;;;19.17;16.42;;;6.20;99.90;;;;;;4994439;28;20042;-73
2023/04/15 05:37:59;;;;;;;17.27;15.48;;;6.20;99.90;;;;;;5004502;28;20189;-72
2023/04/15 05:40:25;;;;;;;20.08;16.52;;;6.30;99.90;;;;;;5002773;28;20145;-72
2023/04/15 05:42:51;;;;;;;19.88;16.30;;;6.30;99.90;;;;;;5009633;28;20389;-72
2023/04/15 05:45:16;;;;;;;20.88;16.75;;;6.40;99.90;;;;;;5003492;28;20053;-71
2023/04/15 05:47:42;;;;;;;20.27;16.27;;;6.40;99.90;;;;;;4982885;28;20030;-73
2023/04/15 05:50:08;;;;;;;20.55;16.77;;;6.40;99.90;;;;;;5001338;28;20144;-72
2023/04/15 05:52:34;;;;;;;19.13;16.30;;;6.40;99.90;;;;;;5007156;28;20734;-73
2023/04/15 05:55:00;;;;;;;21.60;17.70;;;6.50;99.90;;;;;;5004989;28;20096;-72
2023/04/15 05:57:34;;;;;;;20.95;17.27;;;6.60;99.90;;;;;;5004417;28;20065;-74
2023/04/15 06:00:00;;;;;;;20.67;16.63;;;6.60;99.90;;;;;;5001243;28;20042;-72
2023/04/15 06:02:26;;;;;;;19.30;16.35;;;6.60;99.90;;;;;;4974085;28;20045;-72
2023/04/15 06:04:52;;;;;;;20.23;16.38;;;6.60;99.90;;;;;;5001955;28;20514;-71
2023/04/15 06:07:20;;;;;;;19.60;15.90;;;6.60;99.90;;;;;;5007404;28;20041;-72
2023/04/15 06:09:46;;;;;;;18.90;16.27;;;6.70;99.90;;;;;;5003056;28;20045;-73
2023/04/15 06:12:12;;;;;;;21.08;15.70;;;6.70;99.90;;;;;;5004344;28;20045;-72
2023/04/15 06:14:38;;;;;;;21.30;17.27;;;6.80;99.90;;;;;;5000543;28;20092;-71
2023/04/15 06:17:04;;;;;;;20.73;17.20;;;6.80;99.90;;;;;;5007158;28;20065;-71
2023/04/15 06:19:30;;;;;;;21.85;17.20;;;6.70;99.90;;;;;;5001865;28;20045;-71
2023/04/15 06:22:00;;;;;;;20.98;16.95;;;6.90;99.90;;;;;;4988289;28;20046;-72
2023/04/15 06:24:26;;;;;;;20.83;17.08;;;6.90;99.90;;;;;;5003400;28;20056;-72
2023/04/15 06:26:52;;;;;;;20.33;16.85;;;6.90;99.90;;;;;;5001803;28;20793;-72
2023/04/15 06:29:17;;;;;;;22.10;18.45;;;7.00;99.90;;;;;;5004749;28;20378;-72
2023/04/15 06:31:43;;;;;;;23.13;18.67;;;7.00;99.90;;;;;;5003916;28;20050;-70
2023/04/15 06:34:09;;;;;;;24.48;19.00;;;6.90;99.90;;;;;;4987263;28;20124;-70
2023/04/15 06:36:36;;;;;;;23.70;18.70;;;7.00;99.90;;;;;;4992264;28;20042;-73
2023/04/15 06:39:02;;;;;;;24.63;19.20;;;7.10;99.90;;;;;;4999252;28;20107;-71
2023/04/15 06:41:28;;;;;;;24.35;19.42;;;7.10;99.90;;;;;;5001783;28;20481;-71
2023/04/15 06:43:53;;;;;;;23.85;18.52;;;7.10;99.90;;;;;;4997168;28;20057;-71
2023/04/15 06:46:19;;;;;;;22.60;17.88;;;7.20;99.90;;;;;;4997926;28;20049;-69
2023/04/15 06:48:51;;;;;;;23.27;17.02;;;7.20;99.90;;;;;;4999557;28;20084;-70
2023/04/15 06:51:20;;;;;;;21.40;16.52;;;7.30;99.90;;;;;;5004168;28;20099;-70
2023/04/15 06:53:46;;;;;;;21.23;17.02;;;7.30;99.90;;;;;;4992810;28;20054;-70
2023/04/15 06:56:12;;;;;;;19.27;16.20;;;7.40;99.90;;;;;;4995784;28;20099;-69
2023/04/15 06:58:37;;;;;;;20.23;15.10;;;7.40;99.90;;;;;;5002540;28;21099;-70
2023/04/15 07:01:03;;;;;;;19.15;15.32;;;7.40;99.90;;;;;;4978985;28;20038;-72
2023/04/15 07:03:29;;;;;;;20.23;15.63;;;7.40;99.90;;;;;;5002736;28;20489;-71
2023/04/15 07:05:55;;;;;;;17.17;13.57;;;7.40;99.90;;;;;;5004445;28;20061;-71
2023/04/15 07:08:21;;;;;;;18.58;15.05;;;7.40;99.90;;;;;;5003487;28;20034;-69
2023/04/15 07:10:53;;;;;;;19.08;14.75;;;7.50;99.90;;;;;;4980215;28;20062;-71
2023/04/15 07:13:18;;;;;;;17.63;14.27;;;7.50;99.90;;;;;;5002851;28;20400;-70
2023/04/15 07:15:44;;;;;;;17.83;14.32;;;7.50;99.90;;;;;;4999767;28;20539;-70
2023/04/15 07:18:10;;;;;;;15.55;13.15;;;7.60;99.90;;;;;;4999248;28;21453;-72
2023/04/15 07:20:36;;;;;;;17.02;14.15;;;7.60;99.90;;;;;;5001488;28;20052;-69
2023/04/15 07:23:02;;;;;;;17.08;13.88;;;7.60;99.90;;;;;;4986514;28;20042;-71
2023/04/15 07:25:28;;;;;;;18.45;13.73;;;7.70;99.90;;;;;;5005088;28;20037;-71
2023/04/15 07:27:53;;;;;;;16.08;11.57;;;7.70;99.90;;;;;;5001165;28;20068;-74
2023/04/15 07:30:19;;;;;;;15.02;12.27;;;7.70;99.90;;;;;;5003251;28;20097;-74
2023/04/15 07:32:45;;;;;;;14.23;11.73;;;7.80;99.90;;;;;;4986048;28;20057;-74
2023/04/15 07:35:11;;;;;;;15.05;10.57;;;7.80;99.90;;;;;;4986379;28;20070;-70
2023/04/15 07:37:36;;;;;;;13.13;10.93;;;7.90;99.90;;;;;;5006121;28;20041;-69
2023/04/15 07:40:03;;;;;;;15.82;10.60;;;7.90;99.90;;;;;;5004321;28;20053;-71
2023/04/15 07:42:29;;;;;;;13.68;10.82;;;8.00;99.90;;;;;;5007867;28;20361;-70
2023/04/15 07:44:55;;;;;;;12.13;9.55;;;8.00;99.90;;;;;;5010985;28;20053;-71
2023/04/15 07:47:21;;;;;;;13.43;9.70;;;8.10;99.90;;;;;;5011303;28;20667;-71
2023/04/15 07:49:50;;;;;;;11.25;9.63;;;8.10;99.90;;;;;;5002930;28;20567;-72
2023/04/15 07:52:16;;;;;;;12.30;9.18;;;8.20;99.90;;;;;;5000712;28;20054;-69
2023/04/15 07:54:41;;;;;;;11.68;9.07;;;8.30;99.90;;;;;;4991066;28;20060;-71
2023/04/15 07:57:07;;;;;;;10.35;8.52;;;8.30;99.90;;;;;;5004060;28;20058;-71
2023/04/15 07:59:33;;;;;;;10.70;8.70;;;8.30;99.90;;;;;;5003448;28;20227;-71
2023/04/15 08:01:59;;;;;;;12.20;8.55;;;8.40;99.90;;;;;;4984436;28;20189;-70
2023/04/15 08:04:25;;;;;;;10.80;8.45;;;8.40;99.90;;;;;;5002189;28;20546;-69
2023/04/15 08:06:51;;;;;;;11.45;8.77;;;8.40;99.90;;;;;;5002077;28;20046;-71
2023/04/15 08:09:17;;;;;;;12.23;8.77;;;8.50;99.90;;;;;;5008285;28;20038;-71
2023/04/15 08:11:42;;;;;;;10.23;8.50;;;8.50;99.90;;;;;;5004672;28;20627;-71
2023/04/15 08:14:08;;;;;;;11.85;8.52;;;8.60;99.90;;;;;;5005735;28;20049;-69
2023/04/15 08:16:34;;;;;;;10.35;8.40;;;8.50;99.90;;;;;;4989218;28;20145;-71
2023/04/15 08:18:59;;;;;;;10.60;8.25;;;8.60;99.90;;;;;;4991031;28;20045;-72
2023/04/15 08:21:26;;;;;;;11.23;8.70;;;8.60;99.90;;;;;;5005074;28;20121;-72
2023/04/15 08:23:53;;;;;;;10.80;8.93;;;8.80;99.90;;;;;;4981255;28;20040;-72
2023/04/15 08:26:19;;;;;;;12.55;9.65;;;8.80;99.90;;;;;;4991957;28;20046;-73
2023/04/15 08:28:46;;;;;;;10.85;8.77;;;8.80;99.90;;;;;;5006483;28;20044;-71
2023/04/15 08:31:15;;;;;;;11.60;9.07;;;8.90;99.90;;;;;;5007541;28;20080;-74
2023/04/15 08:33:41;;;;;;;10.80;8.95;;;8.90;99.90;;;;;;5007677;28;20042;-72
2023/04/15 08:36:08;;;;;;;11.73;8.60;;;8.90;99.90;;;;;;5006148;28;20056;-72
2023/04/15 08:38:35;;;;;;;13.45;8.98;;;9.00;99.90;;;;;;5002128;28;20042;-71
2023/04/15 08:41:06;;;;;;;10.40;8.32;;;9.00;99.90;;;;;;5005252;28;20046;-74
2023/04/15 08:43:54;;;;;;;10.25;7.65;;;9.00;99.90;;;;;;5000565;28;20045;-70
2023/04/15 08:46:20;;;;;;;10.38;7.65;;;9.00;99.90;;;;;;4998969;28;20488;-72
2023/04/15 08:48:47;;;;;;;8.57;6.63;;;9.00;99.90;;;;;;5005769;28;20049;-72
2023/04/15 08:51:15;;;;;;;;;;;9.00;99.90;;;;;;5004701;28;20050;-72
2023/04/15 08:53:46;;;;;;;9.05;6.20;;;9.10;99.90;;;;;;5002962;28;20371;-73
2023/04/15 08:56:14;;;;;;;9.77;6.07;;;9.10;99.90;;;;;;5007504;28;20117;-71
2023/04/15 08:58:41;;;;;;;10.32;6.40;;;9.10;99.90;;;;;;4989945;28;20449;-72
2023/04/15 09:01:07;;;;;;;7.30;6.10;;;9.20;99.90;;;;;;5006494;28;20473;-71
2023/04/15 09:03:33;;;;;;;9.10;6.28;;;9.20;99.90;;;;;;5003378;28;20076;-72
2023/04/15 09:05:59;;;;;;;7.18;6.03;;;9.20;99.90;;;;;;4980836;28;20084;-70
2023/04/15 09:08:27;;;;;;;8.57;6.57;;;9.20;99.90;;;;;;5001567;28;20064;-71
2023/04/15 09:10:56;;;;;;;8.45;6.45;;;9.20;99.90;;;;;;5007047;28;20053;-72
2023/04/15 09:13:21;;;;;;;9.13;7.20;;;9.20;99.90;;;;;;5005921;28;20041;-71
2023/04/15 09:15:48;;;;;;;10.70;6.68;;;9.30;99.90;;;;;;5006782;28;20041;-71
2023/04/15 09:18:30;;;;;;;8.68;5.95;;;9.30;99.90;;;;;;5006472;28;20092;-71
2023/04/15 09:21:10;;;;;;;9.38;6.05;;;9.30;99.90;;;;;;4997588;28;20078;-72
2023/04/15 09:23:37;;;;;;;8.07;5.63;;;9.30;99.90;;;;;;4997291;28;20117;-71
2023/04/15 09:26:04;;;;;;;9.00;5.90;;;9.30;99.90;;;;;;4997895;28;20042;-71
2023/04/15 09:28:31;;;;;;;6.60;5.27;;;9.40;99.90;;;;;;5001405;28;20447;-74
2023/04/15 09:31:01;;;;;;;6.70;5.13;;;9.40;99.90;;;;;;4996026;28;20054;-71
2023/04/15 09:33:28;;;;;;;7.03;5.50;;;9.40;99.90;;;;;;4989702;28;20102;-70
2023/04/15 09:36:03;;;;;;;7.18;5.35;;;9.50;99.90;;;;;;5003995;28;20310;-73
2023/04/15 09:38:30;;;;;;;8.52;5.07;;;9.50;99.90;;;;;;4999769;28;20054;-72
2023/04/15 09:40:56;;;;;;;8.10;5.72;;;9.50;99.90;;;;;;5007043;28;20042;-72
2023/04/15 09:43:36;;;;;;;8.90;5.38;;;9.50;99.90;;;;;;4999529;28;20042;-77
2023/04/15 09:46:01;;;;;;;8.27;5.80;;;9.40;99.90;;;;;;5011206;28;20046;-74
2023/04/15 09:48:27;;;;;;;9.65;5.93;;;9.40;99.90;;;;;;4999674;28;20077;-74
2023/04/15 09:50:57;;;;;;;7.50;5.57;;;9.40;99.90;;;;;;5005664;28;20042;-76
2023/04/15 09:53:27;;;;;;;5.50;4.90;;;9.50;99.90;;;;;;5007415;28;20125;-72
2023/04/15 09:55:55;;;;;;;6.22;4.72;;;9.50;99.90;;;;;;5007553;28;20084;-73
2023/04/15 09:58:28;;;;;;;7.55;5.18;;;9.60;99.90;;;;;;5000526;28;20064;-73
2023/04/15 10:00:55;;;;;;;6.93;4.72;;;9.60;99.90;;;;;;4992556;28;20045;-72
2023/04/15 10:03:29;;;;;;;7.00;4.82;;;9.70;99.90;;;;;;5000570;28;20065;-73
2023/04/15 10:05:57;;;;;;;6.68;4.80;;;9.70;99.90;;;;;;5000801;28;20050;-73
2023/04/15 10:08:31;;;;;;;7.75;5.10;;;9.70;99.90;;;;;;5009846;28;20117;-72
2023/04/15 10:10:57;;;;;;;6.88;4.80;;;9.70;99.90;;;;;;4999695;28;20046;-73
2023/04/15 10:13:27;;;;;;;7.22;4.60;;;9.70;99.90;;;;;;5000424;28;20049;-72
2023/04/15 10:16:15;;;;;;;6.00;4.57;;;9.70;99.90;;;;;;5007294;28;20571;-73
2023/04/15 10:18:46;;;;;;;7.65;4.40;;;9.70;99.90;;;;;;5009762;28;20053;-72
2023/04/15 10:21:15;;;;;;;8.02;4.40;;;9.60;99.90;;;;;;5003575;28;20041;-72
2023/04/15 10:23:41;;;;;;;7.63;4.40;;;9.60;99.90;;;;;;5005535;28;20042;-72
2023/04/15 10:26:08;;;;;;;7.72;4.30;;;9.60;99.90;;;;;;5010026;28;20226;-73
2023/04/15 10:28:34;;;;;;;;;;;9.70;99.90;;;;;;5007165;28;20436;-70
2023/04/15 10:31:01;;;;;;;7.28;4.35;;;9.60;99.90;;;;;;4999554;28;19994;-73
2023/04/15 10:33:27;;;;;;;5.47;3.47;;;9.60;99.90;;;;;;5006008;28;20073;-72
2023/04/15 10:35:55;;;;;;;6.63;3.88;;;9.60;99.90;;;;;;5007595;28;20034;-72
2023/04/15 10:38:34;;;;;;;8.20;4.38;;;9.60;99.90;;;;;;5008628;28;20042;-72
2023/04/15 10:41:29;;;;;;;6.28;3.90;;;9.70;99.90;;;;;;5000444;28;20052;-72
2023/04/15 10:44:06;;;;;;;8.38;3.90;;;9.70;99.90;;;;;;4998844;28;20057;-72
2023/04/15 10:46:43;;;;;;;9.65;4.78;;;9.70;99.90;;;;;;5000627;28;20046;-69
2023/04/15 10:49:23;;;;;;;7.93;3.85;;;9.70;99.90;;;;;;4999523;28;20392;-70
2023/04/15 10:51:56;;;;;;;9.07;4.00;;;9.60;99.90;;;;;;4999380;28;20076;-69
2023/04/15 10:54:25;;;;;;;7.70;3.90;;;9.70;99.90;;;;;;5002758;28;20100;-70
2023/04/15 10:57:05;;;;;;;7.15;3.60;;;9.60;99.90;;;;;;5003160;28;20034;-71
2023/04/15 10:59:34;;;;;;;6.35;4.07;;;9.60;99.90;;;;;;4999444;28;20057;-73
2023/04/15 11:02:02;;;;;;;8.40;4.03;;;9.50;99.90;;;;;;4995339;28;20045;-72
2023/04/15 11:04:50;;;;;;;8.23;4.13;;;9.60;99.90;;;;;;5000072;28;20045;-72
2023/04/15 11:07:38;;;;;;;7.07;4.00;;;9.60;99.90;;;;;;4987454;28;20041;-76
2023/04/15 11:10:24;;;;;;;6.63;4.03;;;9.60;99.90;;;;;;4989476;28;20535;-73
2023/04/15 11:12:52;;;;;;;6.65;4.68;;;9.60;99.90;;;;;;5001105;28;20440;-74
2023/04/15 11:15:37;;;;;;;9.43;4.40;;;9.60;99.90;;;;;;4998104;28;20045;-75
2023/04/15 11:18:18;;;;;;;8.35;4.47;;;9.60;99.90;;;;;;5008539;28;20042;-75
2023/04/15 11:20:53;;;;;;;6.30;4.38;;;9.60;99.90;;;;;;5007184;28;20042;-73
2023/04/15 11:23:33;;;;;;;5.70;3.70;;;9.60;99.90;;;;;;5001945;28;20034;-75
2023/04/15 11:26:12;;;;;;;8.23;4.10;;;9.50;99.90;;;;;;5001203;28;20038;-74
2023/04/15 11:28:40;;;;;;;7.38;4.10;;;9.50;99.90;;;;;;5007752;28;20129;-73
2023/04/15 11:31:11;;;;;;;5.30;3.67;;;9.50;99.90;;;;;;5008436;28;20037;-72
2023/04/15 11:33:55;;;;;;;7.30;3.50;;;9.60;99.90;;;;;;5007900;28;20548;-72
2023/04/15 11:36:26;;;;;;;8.77;3.80;;;9.50;99.90;;;;;;4997580;28;20050;-72
2023/04/15 11:38:51;;;;;;;6.93;3.58;;;9.50;99.90;;;;;;5008223;28;20114;-77
2023/04/15 11:41:29;;;;;;;7.03;4.00;;;9.40;99.90;;;;;;4999000;28;20791;-74
2023/04/15 11:43:55;;;;;;;8.05;3.63;;;9.40;99.90;;;;;;5001163;28;20046;-73
2023/04/15 11:46:21;;;;;;;8.77;3.65;;;9.40;99.90;;;;;;5006261;28;20042;-73
2023/04/15 11:48:47;;;;;;;6.60;3.70;;;9.40;99.90;;;;;;4999179;28;20057;-71
2023/04/15 11:51:13;;;;;;;5.95;3.65;;;9.40;99.90;;;;;;4989724;28;20393;-71
2023/04/15 11:53:49;;;;;;;6.03;3.35;;;9.40;99.90;;;;;;5007036;28;20061;-71
2023/04/15 11:56:20;;;;;;;5.47;3.30;;;9.40;99.90;;;;;;4996163;28;20083;-72
2023/04/15 11:58:49;;;;;;;5.63;3.67;;;9.50;99.90;;;;;;5007927;28;20038;-72
2023/04/15 12:01:15;;;;;;;7.72;3.65;;;9.40;99.90;;;;;;5002006;28;20500;-73
2023/04/15 12:03:45;;;;;;;6.78;3.50;;;9.50;99.90;;;;;;5002866;28;20049;-73
2023/04/15 12:06:19;;;;;;;6.25;4.10;;;9.50;99.90;;;;;;4999098;28;20049;-72
2023/04/15 12:08:54;;;;;;;7.60;3.72;;;9.50;99.90;;;;;;4988599;28;20049;-74
2023/04/15 12:11:31;;;;;;;6.70;3.40;;;9.40;99.90;;;;;;5004109;28;20057;-74
2023/04/15 12:14:05;;;;;;;5.60;3.58;;;9.50;99.90;;;;;;5001162;28;20080;-76
2023/04/15 12:16:36;;;;;;;7.05;4.03;;;9.50;99.90;;;;;;4989737;28;20457;-75
2023/04/15 12:19:06;;;;;;;7.40;3.97;;;9.50;99.90;;;;;;5005087;28;20042;-76
2023/04/15 12:21:38;;;;;;;5.10;3.42;;;9.50;99.90;;;;;;5005674;28;20443;-78
2023/04/15 12:24:07;;;;;;;8.95;3.60;;;9.50;99.90;;;;;;4993602;28;20069;-72
2023/04/15 12:26:41;;;;;;;6.38;3.35;;;9.50;99.90;;;;;;4997673;28;20045;-73
2023/04/15 12:29:08;;;;;;;7.05;3.47;;;9.50;99.90;;;;;;5007209;28;20129;-71
2023/04/15 12:31:37;;;;;;;7.70;3.40;;;9.60;99.90;;;;;;4997244;28;20432;-72
2023/04/15 12:34:14;;;;;;;5.97;3.15;;;9.60;99.90;;;;;;5005070;28;20041;-75
2023/04/15 12:36:40;;;;;;;6.63;3.42;;;9.60;99.90;;;;;;4986913;28;20049;-72
2023/04/15 12:39:05;;;;;;;7.68;2.90;;;9.60;99.90;;;;;;4997431;28;20045;-71
2023/04/15 12:41:32;;;;;;;5.28;3.00;;;9.60;99.90;;;;;;4998566;28;20096;-70
2023/04/15 12:43:58;;;;;;;9.07;3.55;;;9.60;99.90;;;;;;5001228;28;20449;-72
2023/04/15 12:46:24;;;;;;;7.20;2.95;;;9.70;99.90;;;;;;5005365;28;20045;-73
2023/04/15 12:48:53;;;;;;;5.60;3.30;;;9.60;99.90;;;;;;5006614;28;20049;-73